createdAt,value
2018-09-14T00:00:55.839Z,13.80
2018-09-14T00:03:24.360Z,8.27
2018-09-14T00:05:52.814Z,10.20
2018-09-14T00:08:21.278Z,9.50
2018-09-14T00:10:49.750Z,11.47
2018-09-14T00:13:18.238Z,15.87
2018-09-14T00:15:46.740Z,15.07
2018-09-14T00:18:15.254Z,13.93
2018-09-14T00:20:43.748Z,13.43
2018-09-14T00:23:12.228Z,15.67
2018-09-14T00:25:40.691Z,17.27
2018-09-14T00:28:15.854Z,14.87
2018-09-14T00:30:44.827Z,13.57
2018-09-14T00:33:13.341Z,14.47
2018-09-14T00:35:41.788Z,14.43
2018-09-14T00:38:10.274Z,14.90
2018-09-14T00:40:38.729Z,17.87
2018-09-14T00:43:07.234Z,18.80
2018-09-14T00:45:35.736Z,18.10
2018-09-14T00:48:04.235Z,17.53
2018-09-14T00:50:32.728Z,16.30
2018-09-14T00:53:01.205Z,12.17
2018-09-14T00:55:29.671Z,12.73
2018-09-14T00:57:58.231Z,15.83
2018-09-14T01:00:26.747Z,15.10
2018-09-14T01:02:55.235Z,19.77
2018-09-14T01:05:23.748Z,21.60
2018-09-14T01:07:52.233Z,20.73
2018-09-14T01:10:20.769Z,22.83
2018-09-14T01:12:49.238Z,29.53
2018-09-14T01:15:17.758Z,27.77
2018-09-14T01:17:46.275Z,29.13
2018-09-14T01:20:14.866Z,30.30
2018-09-14T01:22:44.033Z,29.93
2018-09-14T01:25:12.530Z,30.13
2018-09-14T01:27:41.000Z,34.40
2018-09-14T01:30:09.562Z,32.90
2018-09-14T01:32:38.060Z,34.93
2018-09-14T01:37:13.498Z,34.50
2018-09-14T01:39:42.195Z,39.63
2018-09-14T01:42:11.025Z,38.77
2018-09-14T01:44:39.728Z,40.90
2018-09-14T01:47:08.541Z,46.10
2018-09-14T01:49:37.283Z,41.10
2018-09-14T01:52:06.143Z,45.70
2018-09-14T01:54:34.865Z,43.50
2018-09-14T01:57:06.065Z,47.97
2018-09-14T01:59:34.904Z,41.63
2018-09-14T02:02:03.982Z,44.33
2018-09-14T02:04:32.643Z,41.67
2018-09-14T02:07:01.447Z,44.83
2018-09-14T02:09:30.236Z,37.20
2018-09-14T02:11:58.894Z,42.53
2018-09-14T02:14:27.489Z,42.73
2018-09-14T02:16:56.457Z,39.33
2018-09-14T02:19:25.112Z,43.03
2018-09-14T02:21:54.555Z,40.90
2018-09-14T02:24:23.511Z,39.73
2018-09-14T02:26:52.137Z,40.20
2018-09-14T02:29:21.364Z,36.97
2018-09-14T02:31:50.135Z,42.37
2018-09-14T02:34:40.200Z,40.43
2018-09-14T02:37:08.884Z,41.57
2018-09-14T02:39:37.554Z,41.63
2018-09-14T02:42:06.277Z,40.40
2018-09-14T02:44:34.961Z,46.23
2018-09-14T02:47:03.805Z,47.03
2018-09-14T02:49:32.608Z,39.77
2018-09-14T02:52:01.291Z,41.40
2018-09-14T02:54:30.041Z,40.47
2018-09-14T02:56:58.625Z,45.87
2018-09-14T02:59:27.330Z,38.90
2018-09-14T03:01:55.954Z,46.30
2018-09-14T03:04:24.614Z,42.17
2018-09-14T03:06:53.384Z,43.20
2018-09-14T03:09:22.019Z,46.67
2018-09-14T03:11:50.749Z,50.30
2018-09-14T03:14:19.679Z,41.07
2018-09-14T03:16:49.705Z,48.43
2018-09-14T03:19:18.284Z,39.40
2018-09-14T03:21:46.889Z,45.33
2018-09-14T03:24:15.493Z,43.50
2018-09-14T03:26:44.104Z,35.50
2018-09-14T03:29:13.498Z,39.17
2018-09-14T03:31:42.218Z,41.73
2018-09-14T03:34:10.918Z,40.73
2018-09-14T03:36:39.576Z,37.03
2018-09-14T03:39:09.917Z,40.33
2018-09-14T03:41:38.870Z,42.30
2018-09-14T03:44:07.443Z,40.33
2018-09-14T03:46:36.036Z,41.97
2018-09-14T03:49:04.920Z,39.60
2018-09-14T03:51:34.130Z,41.73
2018-09-14T03:54:02.747Z,38.37
2018-09-14T03:56:31.461Z,42.23
2018-09-14T03:59:00.069Z,38.07
2018-09-14T04:01:28.673Z,37.53
2018-09-14T04:03:57.341Z,36.60
2018-09-14T04:06:25.923Z,37.40
2018-09-14T04:08:54.482Z,37.33
2018-09-14T04:11:23.223Z,41.40
2018-09-14T04:13:51.771Z,33.73
2018-09-14T04:16:20.370Z,35.73
2018-09-14T04:18:53.910Z,32.27
2018-09-14T04:21:22.451Z,37.00
2018-09-14T04:23:50.957Z,45.53
2018-09-14T04:26:19.552Z,31.50
2018-09-14T04:28:48.036Z,33.50
2018-09-14T04:31:16.537Z,34.80
2018-09-14T04:33:45.014Z,39.30
2018-09-14T04:36:13.516Z,40.60
2018-09-14T04:38:42.122Z,33.17
2018-09-14T04:41:10.590Z,38.03
2018-09-14T04:43:39.107Z,37.90
2018-09-14T04:46:08.254Z,36.40
2018-09-14T04:48:36.907Z,32.90
2018-09-14T04:51:05.397Z,29.23
2018-09-14T04:53:33.935Z,29.30
2018-09-14T04:56:02.441Z,26.43
2018-09-14T04:58:30.942Z,31.10
2018-09-14T05:00:59.411Z,26.97
2018-09-14T05:03:27.890Z,30.77
2018-09-14T05:05:56.349Z,33.50
2018-09-14T05:08:24.839Z,37.70
2018-09-14T05:10:53.293Z,42.57
2018-09-14T05:13:21.777Z,39.30
2018-09-14T05:15:50.300Z,38.77
2018-09-14T05:18:18.839Z,38.73
2018-09-14T05:20:47.401Z,32.77
2018-09-14T05:23:15.883Z,37.63
2018-09-14T05:25:44.390Z,36.77
2018-09-14T05:28:12.845Z,34.10
2018-09-14T05:30:42.229Z,32.33
2018-09-14T05:33:10.741Z,37.70
2018-09-14T05:35:39.231Z,35.17
2018-09-14T05:38:07.743Z,36.80
2018-09-14T05:40:36.226Z,31.80
2018-09-14T05:43:04.733Z,35.93
2018-09-14T05:45:33.267Z,37.90
2018-09-14T05:48:01.741Z,38.67
2018-09-14T05:50:30.294Z,34.17
2018-09-14T05:52:58.777Z,37.27
2018-09-14T05:55:27.267Z,35.83
2018-09-14T05:57:55.829Z,40.60
2018-09-14T06:00:24.441Z,33.27
2018-09-14T06:02:53.565Z,30.60
2018-09-14T06:05:22.071Z,24.80
2018-09-14T06:07:50.603Z,26.57
2018-09-14T06:10:19.103Z,26.37
2018-09-14T06:12:47.665Z,28.27
2018-09-14T06:15:16.156Z,32.87
2018-09-14T06:17:44.662Z,27.67
2018-09-14T06:20:13.108Z,29.83
2018-09-14T06:22:41.635Z,25.30
2018-09-14T06:25:10.213Z,27.60
2018-09-14T06:27:38.710Z,27.87
2018-09-14T06:30:07.342Z,21.53
2018-09-14T06:32:35.890Z,24.57
2018-09-14T06:35:04.389Z,20.30
2018-09-14T06:37:32.885Z,21.33
2018-09-14T06:40:01.844Z,23.67
2018-09-14T06:42:31.286Z,22.47
2018-09-14T06:44:59.826Z,20.13
2018-09-14T06:47:28.287Z,23.17
2018-09-14T06:49:56.821Z,22.37
2018-09-14T06:52:25.288Z,21.07
2018-09-14T06:54:53.799Z,17.70
2018-09-14T06:57:23.966Z,18.43
2018-09-14T06:59:52.602Z,17.03
2018-09-14T07:02:21.122Z,16.83
2018-09-14T07:04:49.646Z,17.43
2018-09-14T07:07:18.156Z,16.80
2018-09-14T07:09:46.647Z,17.17
2018-09-14T07:12:15.191Z,19.17
2018-09-14T07:14:43.653Z,20.17
2018-09-14T07:17:12.165Z,18.87
2018-09-14T07:19:40.676Z,16.90
2018-09-14T07:22:09.203Z,20.67
2018-09-14T07:24:37.772Z,21.60
2018-09-14T07:27:06.210Z,14.93
2018-09-14T07:29:36.230Z,14.93
2018-09-14T07:32:04.786Z,16.97
2018-09-14T07:34:33.239Z,15.63
2018-09-14T07:37:01.737Z,17.40
2018-09-14T07:39:30.229Z,12.63
2018-09-14T07:41:58.776Z,12.47
2018-09-14T07:44:27.367Z,11.57
2018-09-14T07:46:56.151Z,12.37
2018-09-14T07:49:24.640Z,12.70
2018-09-14T07:51:53.225Z,11.67
2018-09-14T07:54:21.879Z,15.90
2018-09-14T07:56:56.939Z,13.50
2018-09-14T07:59:25.515Z,12.93
2018-09-14T08:01:54.179Z,14.97
2018-09-14T08:04:22.698Z,13.43
2018-09-14T08:06:51.872Z,13.00
2018-09-14T08:09:21.257Z,14.37
2018-09-14T08:11:49.824Z,14.27
2018-09-14T08:14:18.340Z,14.33
2018-09-14T08:16:47.117Z,13.97
2018-09-14T08:19:15.605Z,12.30
2018-09-14T08:21:44.248Z,8.77
2018-09-14T08:24:12.654Z,11.10
2018-09-14T08:26:41.240Z,10.50
2018-09-14T08:29:09.733Z,12.93
2018-09-14T08:31:38.220Z,12.93
2018-09-14T08:34:06.797Z,12.30
2018-09-14T08:36:35.443Z,11.77
2018-09-14T08:39:05.963Z,9.77
2018-09-14T08:41:34.559Z,11.60
2018-09-14T08:44:03.693Z,11.70
2018-09-14T08:46:32.253Z,12.70
2018-09-14T08:49:00.793Z,11.33
2018-09-14T08:51:29.320Z,12.60
2018-09-14T08:53:57.849Z,10.93
2018-09-14T08:56:26.309Z,11.00
2018-09-14T08:58:55.677Z,11.97
2018-09-14T09:01:24.185Z,11.87
2018-09-14T09:03:52.727Z,10.13
2018-09-14T09:06:21.222Z,16.27
2018-09-14T09:08:50.338Z,11.13
2018-09-14T09:11:18.905Z,9.27
2018-09-14T09:13:47.377Z,13.83
2018-09-14T09:16:15.902Z,13.70
2018-09-14T09:18:44.381Z,13.83
2018-09-14T09:21:13.291Z,15.80
2018-09-14T09:23:41.785Z,12.33
2018-09-14T09:26:16.063Z,11.50
2018-09-14T09:28:44.671Z,11.00
2018-09-14T09:31:13.186Z,12.13
2018-09-14T09:33:41.674Z,9.63
2018-09-14T09:36:10.208Z,9.90
2018-09-14T09:38:38.780Z,12.27
2018-09-14T09:41:07.688Z,10.50
2018-09-14T09:43:36.371Z,9.63
2018-09-14T09:46:04.822Z,12.83
2018-09-14T09:48:33.318Z,10.17
2018-09-14T09:51:01.909Z,8.27
2018-09-14T09:53:30.362Z,8.13
2018-09-14T09:55:58.958Z,9.00
2018-09-14T09:58:27.579Z,8.57
2018-09-14T10:01:01.415Z,8.83
2018-09-14T10:03:35.293Z,8.33
2018-09-14T10:06:09.103Z,8.53
2018-09-14T10:08:37.639Z,11.67
2018-09-14T10:11:06.164Z,6.40
2018-09-14T10:13:34.742Z,8.57
2018-09-14T10:16:03.290Z,9.33
2018-09-14T10:18:31.811Z,11.23
2018-09-14T10:21:00.413Z,9.50
2018-09-14T10:23:28.855Z,8.47
2018-09-14T10:25:58.071Z,10.17
2018-09-14T10:28:26.592Z,9.37
2018-09-14T10:30:55.059Z,13.20
2018-09-14T10:33:23.572Z,10.33
2018-09-14T10:35:53.125Z,13.13
2018-09-14T10:38:21.802Z,12.63
2018-09-14T10:40:50.687Z,9.87
2018-09-14T10:43:19.268Z,10.30
2018-09-14T10:45:48.267Z,11.23
2018-09-14T10:48:16.772Z,9.40
2018-09-14T10:50:46.159Z,7.57
2018-09-14T10:53:15.357Z,12.57
2018-09-14T10:55:43.950Z,10.40
2018-09-14T10:58:12.471Z,8.13
2018-09-14T11:00:41.561Z,10.37
2018-09-14T11:03:10.175Z,7.17
2018-09-14T11:05:38.670Z,8.27
2018-09-14T11:08:07.854Z,9.97
2018-09-14T11:10:37.321Z,9.33
2018-09-14T11:13:06.006Z,8.90
2018-09-14T11:15:34.510Z,10.00
2018-09-14T11:18:03.026Z,8.67
2018-09-14T11:20:31.765Z,10.30
2018-09-14T11:23:00.372Z,12.43
2018-09-14T11:25:28.914Z,10.83
2018-09-14T11:27:57.478Z,8.17
2018-09-14T11:30:26.602Z,8.00
2018-09-14T11:32:55.564Z,11.83
2018-09-14T11:35:24.148Z,10.90
2018-09-14T11:37:52.653Z,7.30
2018-09-14T11:40:21.952Z,7.90
2018-09-14T11:42:50.445Z,13.50
2018-09-14T11:45:19.053Z,10.03
2018-09-14T11:47:47.594Z,8.30
2018-09-14T11:50:16.148Z,9.57
2018-09-14T11:52:44.687Z,9.43
2018-09-14T11:55:13.219Z,11.07
2018-09-14T11:57:41.714Z,11.50
2018-09-14T12:00:10.253Z,14.23
2018-09-14T12:02:39.113Z,10.47
2018-09-14T12:05:07.841Z,8.10
2018-09-14T12:07:37.769Z,8.43
2018-09-14T12:10:07.318Z,10.17
2018-09-14T12:12:35.836Z,9.03
2018-09-14T12:15:04.740Z,9.27
2018-09-14T12:17:33.653Z,9.67
2018-09-14T12:20:02.289Z,10.03
2018-09-14T12:22:31.228Z,11.43
2018-09-14T12:24:59.750Z,10.30
2018-09-14T12:27:28.281Z,8.50
2018-09-14T12:29:56.757Z,7.90
2018-09-14T12:32:25.242Z,7.30
2018-09-14T12:34:53.760Z,6.80
2018-09-14T12:37:22.295Z,5.43
2018-09-14T12:39:50.876Z,7.83
2018-09-14T12:42:20.938Z,7.27
2018-09-14T12:44:49.500Z,7.47
2018-09-14T12:47:18.031Z,8.07
2018-09-14T12:49:46.656Z,5.03
2018-09-14T12:52:15.254Z,9.33
2018-09-14T12:54:43.788Z,7.07
2018-09-14T12:57:12.322Z,5.77
2018-09-14T12:59:40.828Z,5.40
2018-09-14T13:02:10.145Z,5.30
2018-09-14T13:04:39.260Z,9.23
2018-09-14T13:07:08.113Z,7.23
2018-09-14T13:09:37.118Z,4.13
2018-09-14T13:12:05.944Z,8.60
2018-09-14T13:14:34.486Z,8.23
2018-09-14T13:17:03.101Z,6.73
2018-09-14T13:19:31.638Z,5.77
2018-09-14T13:22:00.181Z,6.30
2018-09-14T13:24:28.759Z,6.07
2018-09-14T13:26:57.376Z,8.30
2018-09-14T13:29:26.103Z,4.73
2018-09-14T13:31:54.589Z,4.83
2018-09-14T13:34:23.258Z,5.47
2018-09-14T13:36:51.789Z,6.57
2018-09-14T13:39:20.369Z,7.07
2018-09-14T13:41:48.943Z,8.97
2018-09-14T13:44:17.738Z,3.90
2018-09-14T13:46:46.239Z,6.53
2018-09-14T13:49:14.781Z,8.30
2018-09-14T13:51:43.343Z,5.80
2018-09-14T13:54:11.851Z,7.90
2018-09-14T13:56:40.531Z,7.27
2018-09-14T13:59:09.202Z,7.33
2018-09-14T14:01:38.218Z,11.67
2018-09-14T14:04:06.806Z,9.40
2018-09-14T14:06:35.354Z,8.03
2018-09-14T14:09:08.208Z,6.60
2018-09-14T14:11:36.740Z,6.57
2018-09-14T14:14:05.271Z,7.23
2018-09-14T14:16:33.822Z,8.93
2018-09-14T14:19:02.411Z,8.83
2018-09-14T14:21:30.945Z,5.23
2018-09-14T14:23:59.848Z,5.17
2018-09-14T14:26:28.411Z,7.60
2018-09-14T14:28:57.080Z,8.37
2018-09-14T14:31:25.638Z,6.27
2018-09-14T14:33:54.329Z,6.50
2018-09-14T14:36:23.127Z,4.70
2018-09-14T14:38:51.591Z,6.47
2018-09-14T14:41:20.529Z,7.23
2018-09-14T14:43:49.118Z,10.30
2018-09-14T14:46:17.552Z,9.93
2018-09-14T14:48:46.008Z,5.30
2018-09-14T14:51:14.441Z,4.30
2018-09-14T14:53:42.914Z,5.17
2018-09-14T14:56:11.405Z,5.03
2018-09-14T14:58:39.955Z,3.37
2018-09-14T15:01:08.439Z,4.10
2018-09-14T15:03:36.887Z,5.90
2018-09-14T15:06:05.385Z,4.07
2018-09-14T15:08:33.950Z,5.43
2018-09-14T15:11:02.459Z,6.27
2018-09-14T15:13:30.948Z,5.57
2018-09-14T15:15:59.373Z,10.77
2018-09-14T15:18:27.882Z,5.90
2018-09-14T15:20:56.376Z,7.70
2018-09-14T15:23:26.546Z,6.43
2018-09-14T15:25:55.234Z,4.53
2018-09-14T15:28:23.674Z,3.77
2018-09-14T15:30:52.110Z,6.13
2018-09-14T15:33:20.657Z,4.97
2018-09-14T15:35:49.106Z,5.30
2018-09-14T15:38:17.638Z,3.43
2018-09-14T15:40:46.158Z,4.60
2018-09-14T15:43:14.601Z,4.17
2018-09-14T15:45:43.037Z,6.30
2018-09-14T15:48:11.547Z,6.73
2018-09-14T15:50:40.006Z,4.67
2018-09-14T15:53:08.469Z,4.70
2018-09-14T15:55:37.040Z,6.17
2018-09-14T15:58:05.886Z,3.90
2018-09-14T16:00:34.401Z,6.17
2018-09-14T16:03:02.869Z,8.93
2018-09-14T16:05:31.311Z,4.90
2018-09-14T16:07:59.792Z,4.80
2018-09-14T16:10:28.233Z,4.43
2018-09-14T16:18:40.793Z,3.83
2018-09-14T16:21:09.245Z,4.33
2018-09-14T16:23:37.757Z,11.03
2018-09-14T16:26:10.114Z,7.43
2018-09-14T16:31:31.492Z,7.07
2018-09-14T16:33:59.913Z,8.27
2018-09-14T16:36:28.494Z,7.13
2018-09-14T16:38:57.047Z,5.50
2018-09-14T16:41:25.485Z,4.47
2018-09-14T16:43:53.941Z,7.90
2018-09-14T16:46:22.388Z,7.17
2018-09-14T16:48:50.861Z,5.53
2018-09-14T16:51:19.298Z,5.23
2018-09-14T16:53:47.827Z,5.50
2018-09-14T16:56:16.321Z,5.90
2018-09-14T16:58:45.322Z,7.17
2018-09-14T17:01:13.820Z,2.80
2018-09-14T17:03:42.277Z,7.27
2018-09-14T17:06:10.731Z,5.13
2018-09-14T17:08:39.198Z,4.57
2018-09-14T17:11:07.652Z,6.67
2018-09-14T17:13:36.110Z,5.47
2018-09-14T17:16:04.570Z,6.47
2018-09-14T17:18:33.010Z,6.87
2018-09-14T17:21:01.475Z,5.30
2018-09-14T17:23:29.946Z,10.87
2018-09-14T17:25:58.397Z,5.97
2018-09-14T17:28:26.875Z,5.43
2018-09-14T17:30:55.334Z,5.40
2018-09-14T17:33:23.790Z,7.07
2018-09-14T17:35:52.232Z,8.07
2018-09-14T17:38:20.707Z,5.07
2018-09-14T17:40:49.242Z,5.47
2018-09-14T17:43:17.693Z,4.57
2018-09-14T17:45:46.281Z,6.07
2018-09-14T17:48:14.729Z,6.43
2018-09-14T17:50:44.170Z,6.83
2018-09-14T17:53:12.665Z,6.07
2018-09-14T17:55:41.121Z,7.40
2018-09-14T17:58:09.587Z,5.30
2018-09-14T18:00:38.093Z,5.87
2018-09-14T18:03:07.184Z,5.63
2018-09-14T18:05:35.714Z,6.30
2018-09-14T18:08:04.154Z,6.13
2018-09-14T18:10:32.614Z,6.47
2018-09-14T18:13:01.117Z,7.20
2018-09-14T18:15:29.605Z,6.07
2018-09-14T18:17:58.067Z,8.00
2018-09-14T18:20:26.508Z,6.50
2018-09-14T18:22:54.966Z,5.50
2018-09-14T18:25:23.393Z,7.27
2018-09-14T18:27:51.918Z,7.20
2018-09-14T18:30:20.383Z,10.87
2018-09-14T18:32:48.885Z,9.17
2018-09-14T18:35:17.503Z,12.90
2018-09-14T18:37:45.974Z,9.27
2018-09-14T18:40:14.466Z,5.77
2018-09-14T18:42:42.937Z,3.90
2018-09-14T18:45:11.561Z,5.83
2018-09-14T18:47:40.063Z,3.50
2018-09-14T18:50:08.626Z,4.60
2018-09-14T18:52:37.128Z,9.67
2018-09-14T18:55:06.097Z,8.53
2018-09-14T18:57:35.079Z,8.50
2018-09-14T19:00:03.562Z,3.83
2018-09-14T19:02:32.038Z,6.17
2018-09-14T19:05:00.506Z,4.80
2018-09-14T19:07:28.940Z,4.93
2018-09-14T19:09:57.463Z,7.97
2018-09-14T19:12:25.943Z,7.43
2018-09-14T19:14:54.477Z,4.93
2018-09-14T19:17:22.919Z,6.63
2018-09-14T19:19:51.336Z,5.67
2018-09-14T19:22:19.784Z,7.10
2018-09-14T19:24:48.306Z,4.77
2018-09-14T19:27:16.700Z,6.27
2018-09-14T19:29:45.191Z,6.07
2018-09-14T19:32:15.244Z,5.43
2018-09-14T19:34:43.737Z,5.83
2018-09-14T19:37:12.407Z,6.13
2018-09-14T19:39:41.026Z,5.47
2018-09-14T19:42:09.540Z,5.97
2018-09-14T19:44:38.061Z,3.93
2018-09-14T19:47:06.521Z,6.03
2018-09-14T19:49:34.997Z,6.77
2018-09-14T19:52:03.495Z,4.77
2018-09-14T19:54:31.993Z,7.30
2018-09-14T19:57:00.461Z,5.43
2018-09-14T19:59:28.977Z,7.77
2018-09-14T20:01:57.426Z,6.17
2018-09-14T20:04:25.911Z,6.57
2018-09-14T20:06:54.412Z,5.13
2018-09-14T20:09:23.857Z,5.63
2018-09-14T20:11:52.365Z,9.70
2018-09-14T20:14:20.922Z,9.87
2018-09-14T20:16:49.386Z,8.33
2018-09-14T20:19:17.869Z,9.47
2018-09-14T20:21:46.413Z,10.00
2018-09-14T20:24:14.917Z,9.10
2018-09-14T20:26:43.987Z,11.27
2018-09-14T20:29:12.522Z,8.13
2018-09-14T20:31:41.035Z,11.20
2018-09-14T20:34:09.514Z,10.83
2018-09-14T20:36:38.001Z,12.40
2018-09-14T20:39:08.435Z,11.00
2018-09-14T20:41:37.041Z,10.57
2018-09-14T20:44:05.533Z,11.43
2018-09-14T20:46:34.075Z,9.73
2018-09-14T20:49:02.536Z,9.00
2018-09-14T20:51:31.012Z,9.87
2018-09-14T20:53:59.632Z,10.27
2018-09-14T20:56:28.074Z,7.43
2018-09-14T20:58:56.530Z,10.30
2018-09-14T21:01:24.992Z,11.33
2018-09-14T21:03:53.442Z,10.23
2018-09-14T21:06:21.889Z,12.07
2018-09-14T21:08:50.333Z,11.13
2018-09-14T21:11:18.782Z,11.00
2018-09-14T21:13:47.415Z,11.70
2018-09-14T21:16:15.863Z,11.77
2018-09-14T21:18:44.308Z,8.60
2018-09-14T21:21:12.743Z,8.47
2018-09-14T21:23:41.185Z,8.37
2018-09-14T21:26:09.614Z,8.83
2018-09-14T21:28:38.478Z,8.50
2018-09-14T21:31:06.922Z,10.40
2018-09-14T21:33:35.612Z,8.53
2018-09-14T21:36:04.727Z,10.10
2018-09-14T21:38:33.261Z,8.60
2018-09-14T21:41:01.710Z,7.57
2018-09-14T21:43:30.146Z,5.30
2018-09-14T21:45:58.573Z,6.20
2018-09-14T21:48:27.376Z,6.90
2018-09-14T21:50:55.889Z,8.53
2018-09-14T21:53:24.307Z,4.23
2018-09-14T21:55:52.741Z,7.57
2018-09-14T21:58:21.165Z,6.97
2018-09-14T22:00:54.931Z,6.17
2018-09-14T22:03:23.381Z,8.37
2018-09-14T22:05:51.893Z,5.63
2018-09-14T22:08:20.370Z,8.43
2018-09-14T22:10:48.834Z,7.00
2018-09-14T22:13:17.390Z,6.00
2018-09-14T22:15:45.809Z,7.50
2018-09-14T22:18:14.273Z,9.33
2018-09-14T22:20:42.693Z,5.77
2018-09-14T22:23:11.138Z,7.20
2018-09-14T22:25:39.615Z,5.50
2018-09-14T22:28:08.138Z,6.57
2018-09-14T22:30:36.585Z,6.80
2018-09-14T22:33:05.528Z,7.97
2018-09-14T22:35:33.965Z,6.97
2018-09-14T22:38:02.393Z,7.43
2018-09-14T22:40:30.852Z,5.07
2018-09-14T22:42:59.282Z,7.87
2018-09-14T22:45:27.722Z,4.30
2018-09-14T22:47:56.151Z,6.57
2018-09-14T22:50:24.616Z,5.27
2018-09-14T22:52:53.072Z,4.50
2018-09-14T22:55:21.500Z,5.83
2018-09-14T22:57:49.945Z,9.63
2018-09-14T23:00:23.669Z,5.00
2018-09-14T23:02:52.101Z,3.80
2018-09-14T23:05:20.610Z,3.93
2018-09-14T23:07:49.041Z,6.47
2018-09-14T23:10:17.476Z,4.83
2018-09-14T23:12:45.972Z,5.93
2018-09-14T23:15:14.426Z,6.17
2018-09-14T23:17:42.878Z,5.03
2018-09-14T23:20:11.305Z,4.67
2018-09-14T23:22:39.726Z,5.03
2018-09-14T23:25:08.177Z,4.47
2018-09-14T23:27:36.645Z,6.60
2018-09-14T23:30:05.721Z,6.37
2018-09-14T23:32:34.144Z,6.10
2018-09-14T23:35:03.117Z,4.70
2018-09-14T23:37:31.536Z,5.33
2018-09-14T23:40:00.046Z,5.40
2018-09-14T23:42:28.509Z,5.60
2018-09-14T23:44:56.920Z,9.30
2018-09-14T23:47:25.419Z,4.43
2018-09-14T23:49:53.868Z,4.70
2018-09-14T23:52:22.317Z,6.73
2018-09-14T23:54:50.743Z,7.10
2018-09-14T23:57:19.180Z,8.63
2018-09-14T23:59:47.630Z,4.73
